메인 페이지
METAR-TAF:

METAR-TAF

공항 :

바르샤바 프레드릭 쇼팽 국제공항

바르샤바, 폴란드

위도: 52-10N, 경도: 020-58E, 고도: 106m

현재 날씨관측

예보는 36분 전, 15:30시(UTC)에 발표되었습니다.
동남동4kt
온도 0°C
습도 86%
기압 1029 hPa
시정: 6000m
고도 3200ft 상공 구름 많음

METAR: EPWA 181530Z 12004KT 6000 BKN032 M00/M02 Q1029 BECMG 5000 BR

시각: 17:06 (16:06 UTC)

예보

예보는 1 시간 36분 전, 14:30시(UTC)에 발표되었습니다.
예보 대상 시간: 18일 15시부터 19일 15시까지 (UTC)
여러 방향의 바람 3kt
시정: 4000m
고도 1500ft 상공 구름 보통
고도 3000ft 상공 흐림
박무
전환 중
18일 15시부터 18일 18시까지 (UTC)
시정: 2500m
고도 1200ft 상공 흐림
박무
일시적
18일 17시부터 19일 04시까지 (UTC)
시정: 1000m
고도 300ft 상공 구름 많음
박무
확률 40%
18일 20시부터 19일 03시까지 (UTC)
시정: 0400m
고도 100ft 상공 흐림
어는 안개
전환 중
19일 00시부터 19일 03시까지 (UTC)
남남동10kt
전환 중
19일 03시부터 19일 06시까지 (UTC)
시정: 4000m
박무
일시적
19일 10시부터 19일 14시까지 (UTC)
시정: 7000m
고도 2500ft 상공 구름 많음

TAF: EPWA 181430Z 1815/1915 VRB03KT 4000 BR SCT015 OVC030 BECMG 1815/1818 2500 BR OVC012 TEMPO 1817/1904 1000 BR BKN003 PROB40 1820/1903 0400 FZFG OVC001 BECMG 1900/1903 15010KT BECMG 1903/1906 4000 BR TEMPO 1910/1914 7000 BKN025

4,000개 이상의 공항 관측 자료 및 예보 (METAR 및 TAF 보고).

지도상에서 검색 가능한 기상관측소가 노란 점과 빨간 점으로 표시되어 있습니다.

기상관측소 명을 보려면 표시 위로 마우스를 이동하세요.

날씨 관측과 예보를 보려면 클릭하세요.

지도 변경 : 확대하려면 엑스 표시가 있는 녹색 버튼, 축소하려면 빼기 표시가 있는 녹색 버튼, 다음 페이지의 지도를 보려면 녹색 화살표를 클릭하세요.


METAR-TAF: